createdAt,value
2022-12-18T00:01:36.527Z,80.79
2022-12-18T00:04:06.564Z,80.82
2022-12-18T00:06:33.948Z,80.44
2022-12-18T00:09:01.979Z,79.71
2022-12-18T00:11:31.391Z,80.29
2022-12-18T00:14:00.251Z,79.97
2022-12-18T00:16:28.691Z,79.79
2022-12-18T00:18:59.231Z,79.69
2022-12-18T00:21:27.317Z,80.01
2022-12-18T00:23:56.151Z,80.53
2022-12-18T00:26:29.404Z,80.21
2022-12-18T00:29:08.568Z,80.73
2022-12-18T00:31:35.857Z,80.06
2022-12-18T00:34:03.114Z,79.89
2022-12-18T00:36:33.260Z,79.99
2022-12-18T00:39:02.157Z,80.07
2022-12-18T00:41:29.236Z,79.83
2022-12-18T00:43:57.467Z,80.00
2022-12-18T00:46:24.249Z,80.42
2022-12-18T00:48:51.065Z,80.35
2022-12-18T00:51:17.866Z,80.45
2022-12-18T00:53:44.826Z,80.04
2022-12-18T00:56:11.659Z,80.39
2022-12-18T00:58:38.498Z,80.17
2022-12-18T01:01:06.617Z,80.40
2022-12-18T01:03:36.296Z,80.87
2022-12-18T01:06:12.729Z,81.08
2022-12-18T01:08:40.309Z,80.91
2022-12-18T01:11:14.890Z,81.07
2022-12-18T01:13:42.700Z,81.11
2022-12-18T01:16:12.115Z,81.09
2022-12-18T01:18:38.975Z,80.84
2022-12-18T01:21:15.449Z,81.14
2022-12-18T01:23:42.764Z,80.99
2022-12-18T01:26:17.262Z,81.25
2022-12-18T01:28:44.501Z,81.23
2022-12-18T01:31:27.229Z,80.96
2022-12-18T01:33:56.404Z,80.86
2022-12-18T01:36:28.637Z,80.48
2022-12-18T01:38:56.562Z,80.50
2022-12-18T01:41:27.421Z,80.26
2022-12-18T01:43:57.692Z,80.21
2022-12-18T01:46:25.972Z,79.00
2022-12-18T01:49:02.348Z,79.60
2022-12-18T01:51:31.786Z,79.30
2022-12-18T01:54:00.393Z,79.31
2022-12-18T01:56:28.034Z,79.48
2022-12-18T01:59:14.916Z,78.65
2022-12-18T02:01:41.797Z,79.02
2022-12-18T02:04:22.182Z,79.10
2022-12-18T02:06:56.764Z,78.40
2022-12-18T02:09:33.473Z,78.63
2022-12-18T02:12:17.903Z,78.87
2022-12-18T02:14:47.573Z,78.93
2022-12-18T02:17:23.444Z,78.61
2022-12-18T02:19:56.784Z,78.68
2022-12-18T02:22:45.407Z,78.16
2022-12-18T02:25:27.153Z,78.63
2022-12-18T02:27:57.685Z,78.36
2022-12-18T02:30:25.353Z,78.98
2022-12-18T02:32:54.955Z,79.06
2022-12-18T02:35:25.940Z,78.61
2022-12-18T02:37:56.404Z,79.07
2022-12-18T02:40:26.525Z,78.81
2022-12-18T02:42:53.334Z,79.52
2022-12-18T02:45:21.323Z,78.87
2022-12-18T02:47:51.158Z,79.35
2022-12-18T02:50:35.255Z,79.70
2022-12-18T02:53:18.698Z,79.60
2022-12-18T02:55:46.801Z,80.06
2022-12-18T02:58:22.146Z,80.21
2022-12-18T03:01:00.014Z,80.00
2022-12-18T03:03:39.375Z,80.14
2022-12-18T03:06:12.057Z,80.31
2022-12-18T03:08:53.038Z,80.55
2022-12-18T03:11:20.059Z,79.67
2022-12-18T03:13:53.857Z,80.04
2022-12-18T03:16:29.826Z,79.98
2022-12-18T03:19:01.949Z,80.76
2022-12-18T03:21:36.469Z,80.90
2022-12-18T03:24:08.963Z,81.53
2022-12-18T03:26:41.863Z,81.28
2022-12-18T03:29:24.742Z,80.46
2022-12-18T03:31:56.952Z,80.55
2022-12-18T03:34:36.773Z,81.52
2022-12-18T03:37:08.254Z,81.77
2022-12-18T03:39:37.902Z,82.76
2022-12-18T03:42:40.403Z,82.66
2022-12-18T03:45:19.682Z,81.43
2022-12-18T03:48:00.960Z,82.18
2022-12-18T03:50:59.202Z,82.20
2022-12-18T03:53:45.323Z,82.60
2022-12-18T03:56:15.282Z,83.24
2022-12-18T03:58:44.957Z,83.13
2022-12-18T04:01:21.935Z,82.82
2022-12-18T04:03:50.624Z,82.25
2022-12-18T04:06:20.714Z,83.83
2022-12-18T04:08:48.578Z,82.33
2022-12-18T04:11:20.503Z,82.21
2022-12-18T04:13:48.246Z,81.57
2022-12-18T04:16:20.824Z,81.82
2022-12-18T04:18:52.039Z,81.75
2022-12-18T04:21:20.546Z,82.21
2022-12-18T04:23:48.809Z,81.80
2022-12-18T04:26:18.195Z,82.17
2022-12-18T04:28:54.476Z,82.49
2022-12-18T04:31:22.598Z,81.32
2022-12-18T04:33:50.095Z,81.42
2022-12-18T04:36:17.478Z,81.35
2022-12-18T04:38:45.533Z,82.49
2022-12-18T04:41:15.586Z,82.37
2022-12-18T04:43:44.626Z,83.05
2022-12-18T04:46:11.405Z,82.99
2022-12-18T04:48:39.272Z,82.53
2022-12-18T04:51:07.459Z,82.46
2022-12-18T04:53:34.813Z,82.93
2022-12-18T04:56:12.409Z,82.21
2022-12-18T04:58:41.558Z,82.39
2022-12-18T05:01:09.408Z,82.65
2022-12-18T05:03:37.583Z,82.42
2022-12-18T05:06:06.009Z,83.35
2022-12-18T05:08:33.213Z,82.84
2022-12-18T05:11:09.369Z,83.88
2022-12-18T05:13:38.727Z,83.09
2022-12-18T05:16:07.445Z,83.67
2022-12-18T05:18:34.872Z,82.75
2022-12-18T05:21:02.023Z,83.40
2022-12-18T05:23:29.272Z,83.31
2022-12-18T05:26:02.352Z,82.24
2022-12-18T05:28:31.645Z,82.81
2022-12-18T05:31:01.826Z,82.81
2022-12-18T05:33:32.672Z,81.89
2022-12-18T05:36:01.521Z,82.84
2022-12-18T05:38:30.105Z,83.05
2022-12-18T05:40:57.986Z,82.92
2022-12-18T05:43:27.927Z,83.00
2022-12-18T05:45:55.584Z,82.63
2022-12-18T05:48:22.996Z,83.17
2022-12-18T05:50:51.368Z,83.44
2022-12-18T05:53:20.576Z,84.03
2022-12-18T05:55:48.534Z,83.74
2022-12-18T05:58:16.297Z,83.31
2022-12-18T06:00:46.016Z,84.04
2022-12-18T06:03:14.627Z,83.78
2022-12-18T06:05:44.796Z,84.27
2022-12-18T06:08:13.356Z,84.43
2022-12-18T06:10:40.691Z,85.16
2022-12-18T06:13:08.397Z,83.83
2022-12-18T06:15:38.315Z,84.53
2022-12-18T06:18:05.116Z,84.98
2022-12-18T06:20:33.612Z,84.04
2022-12-18T06:23:01.342Z,83.41
2022-12-18T06:25:28.188Z,84.01
2022-12-18T06:27:55.065Z,84.22
2022-12-18T06:30:21.957Z,84.48
2022-12-18T06:32:56.418Z,84.39
2022-12-18T06:35:24.143Z,85.52
2022-12-18T06:37:50.925Z,85.69
2022-12-18T06:40:18.188Z,85.47
2022-12-18T06:42:45.052Z,85.48
2022-12-18T06:45:12.057Z,85.10
2022-12-18T06:47:41.664Z,85.61
2022-12-18T06:50:09.174Z,85.76
2022-12-18T06:52:35.939Z,85.19
2022-12-18T06:55:03.003Z,86.09
2022-12-18T06:57:29.949Z,85.81
2022-12-18T06:59:56.751Z,86.01
2022-12-18T07:02:23.584Z,86.24
2022-12-18T07:04:50.434Z,86.05
2022-12-18T07:07:17.877Z,86.15
2022-12-18T07:09:44.649Z,86.20
2022-12-18T07:12:11.446Z,86.18
2022-12-18T07:14:38.236Z,86.17
2022-12-18T07:17:05.089Z,86.32
2022-12-18T07:19:33.591Z,86.27
2022-12-18T07:22:00.505Z,86.44
2022-12-18T07:24:27.413Z,86.25
2022-12-18T07:26:54.331Z,85.62
2022-12-18T07:29:22.173Z,84.87
2022-12-18T07:31:49.355Z,85.39
2022-12-18T07:34:16.412Z,85.13
2022-12-18T07:36:43.252Z,85.25
2022-12-18T07:39:12.489Z,84.91
2022-12-18T07:41:43.751Z,85.46
2022-12-18T07:44:16.250Z,85.41
2022-12-18T07:46:43.185Z,85.07
2022-12-18T07:49:09.918Z,84.92
2022-12-18T07:51:36.769Z,85.54
2022-12-18T07:54:03.594Z,85.49
2022-12-18T07:56:31.676Z,85.85
2022-12-18T07:59:00.313Z,86.03
2022-12-18T08:01:30.637Z,85.41
2022-12-18T08:03:58.543Z,85.67
2022-12-18T08:06:25.335Z,85.34
2022-12-18T08:08:56.421Z,85.52
2022-12-18T08:11:24.854Z,84.22
2022-12-18T08:13:52.139Z,83.20
2022-12-18T08:16:20.044Z,83.22
2022-12-18T08:18:47.698Z,83.69
2022-12-18T08:21:17.287Z,84.14
2022-12-18T08:23:44.355Z,83.63
2022-12-18T08:26:14.737Z,83.48
2022-12-18T08:28:41.886Z,83.89
2022-12-18T08:31:10.061Z,84.34
2022-12-18T08:33:38.766Z,84.22
2022-12-18T08:36:06.726Z,84.42
2022-12-18T08:38:34.193Z,84.44
2022-12-18T08:41:01.850Z,84.97
2022-12-18T08:43:29.037Z,84.90
2022-12-18T08:45:56.095Z,85.25
2022-12-18T08:48:23.025Z,85.48
2022-12-18T08:50:57.519Z,84.43
2022-12-18T08:53:27.559Z,85.41
2022-12-18T08:55:59.872Z,85.21
2022-12-18T08:58:26.779Z,85.15
2022-12-18T09:00:53.578Z,85.39
2022-12-18T09:03:20.902Z,85.21
2022-12-18T09:05:47.781Z,85.41
2022-12-18T09:08:14.652Z,84.91
2022-12-18T09:10:46.388Z,85.32
2022-12-18T09:13:13.966Z,85.14
2022-12-18T09:15:44.603Z,85.22
2022-12-18T09:18:11.403Z,85.41
2022-12-18T09:20:39.301Z,84.53
2022-12-18T09:23:06.689Z,85.36
2022-12-18T09:25:34.486Z,85.28
2022-12-18T09:28:01.387Z,85.30
2022-12-18T09:30:28.985Z,84.44
2022-12-18T09:32:56.036Z,84.77
2022-12-18T09:35:23.126Z,84.48
2022-12-18T09:37:49.917Z,84.97
2022-12-18T09:40:23.410Z,85.51
2022-12-18T09:42:56.187Z,85.30
2022-12-18T09:45:24.487Z,85.71
2022-12-18T09:47:53.381Z,85.77
2022-12-18T09:50:35.857Z,85.69
2022-12-18T09:53:19.446Z,85.48
2022-12-18T09:55:49.365Z,85.34
2022-12-18T09:58:28.258Z,85.45
2022-12-18T10:00:55.682Z,85.86
2022-12-18T10:03:22.896Z,85.68
2022-12-18T10:06:07.730Z,85.24
2022-12-18T10:08:49.297Z,85.20
2022-12-18T10:11:43.351Z,84.47
2022-12-18T10:14:37.444Z,85.10
2022-12-18T10:17:20.047Z,84.56
2022-12-18T10:19:56.007Z,84.07
2022-12-18T10:22:54.964Z,83.97
2022-12-18T10:25:26.472Z,84.49
2022-12-18T10:28:01.156Z,84.40
2022-12-18T10:30:28.042Z,83.81
2022-12-18T10:32:54.908Z,84.42
2022-12-18T10:35:25.021Z,84.00
2022-12-18T10:38:04.017Z,83.63
2022-12-18T10:40:31.255Z,84.05
2022-12-18T10:43:05.996Z,83.48
2022-12-18T10:45:32.869Z,83.53
2022-12-18T10:48:00.034Z,83.67
2022-12-18T10:51:08.738Z,83.76
2022-12-18T10:53:24.705Z,83.65
2022-12-18T10:55:55.059Z,83.45
2022-12-18T10:58:27.489Z,83.51
2022-12-18T11:01:18.158Z,83.24
2022-12-18T11:04:10.427Z,84.11
2022-12-18T11:06:54.370Z,84.54
2022-12-18T11:09:23.891Z,83.56
2022-12-18T11:11:52.309Z,83.54
2022-12-18T11:14:47.335Z,83.05
2022-12-18T11:17:35.593Z,84.02
2022-12-18T11:20:06.332Z,84.42
2022-12-18T11:22:35.853Z,84.30
2022-12-18T11:27:57.634Z,83.66
2022-12-18T11:30:28.984Z,83.92
2022-12-18T11:33:01.592Z,83.67
2022-12-18T11:35:28.261Z,84.45
2022-12-18T11:38:00.719Z,83.43
2022-12-18T11:40:41.259Z,83.31
2022-12-18T11:43:15.936Z,83.57
2022-12-18T11:45:53.623Z,83.61
2022-12-18T11:48:29.106Z,83.60
2022-12-18T11:50:58.580Z,83.85
2022-12-18T11:53:27.277Z,83.82
2022-12-18T11:55:59.844Z,82.97
2022-12-18T11:58:47.679Z,83.79
2022-12-18T12:01:26.661Z,82.93
2022-12-18T12:04:08.350Z,82.89
2022-12-18T12:07:03.332Z,83.85
2022-12-18T12:10:19.688Z,83.10
2022-12-18T12:12:48.663Z,83.66
2022-12-18T12:15:45.601Z,82.58
2022-12-18T12:18:24.287Z,83.00
2022-12-18T12:20:54.571Z,83.07
2022-12-18T12:23:26.084Z,82.78
2022-12-18T12:26:03.960Z,83.20
2022-12-18T12:28:42.821Z,83.39
2022-12-18T12:31:31.030Z,83.45
2022-12-18T12:34:04.872Z,83.08
2022-12-18T12:36:39.115Z,82.90
2022-12-18T12:39:12.773Z,83.25
2022-12-18T12:41:42.695Z,83.19
2022-12-18T12:44:17.538Z,83.38
2022-12-18T12:46:44.863Z,83.07
2022-12-18T12:49:16.836Z,83.10
2022-12-18T12:51:48.660Z,82.78
2022-12-18T12:54:24.636Z,83.46
2022-12-18T12:57:24.437Z,83.37
2022-12-18T13:00:14.043Z,83.62
2022-12-18T13:02:54.046Z,83.29
2022-12-18T13:05:39.658Z,83.02
2022-12-18T13:08:12.457Z,83.81
2022-12-18T13:10:41.930Z,82.83
2022-12-18T13:13:10.669Z,83.69
2022-12-18T13:15:46.324Z,82.65
2022-12-18T13:18:24.901Z,82.85
2022-12-18T13:21:04.942Z,83.54
2022-12-18T13:23:41.883Z,83.62
2022-12-18T13:26:09.351Z,83.86
2022-12-18T13:28:48.260Z,83.77
2022-12-18T13:31:36.517Z,83.63
2022-12-18T13:34:26.760Z,83.07
2022-12-18T13:36:57.046Z,83.03
2022-12-18T13:39:34.751Z,83.47
2022-12-18T13:42:08.356Z,83.52
2022-12-18T13:44:40.902Z,83.23
2022-12-18T13:47:32.166Z,83.92
2022-12-18T13:49:59.377Z,84.25
2022-12-18T13:52:29.346Z,82.72
2022-12-18T13:54:59.498Z,83.13
2022-12-18T13:57:28.980Z,83.12
2022-12-18T13:59:58.697Z,83.39
2022-12-18T14:02:28.353Z,84.07
2022-12-18T14:04:56.555Z,83.53
2022-12-18T14:07:31.478Z,83.45
2022-12-18T14:10:40.796Z,83.78
2022-12-18T14:12:52.649Z,84.05
2022-12-18T14:15:42.289Z,84.17
2022-12-18T14:18:32.299Z,83.77
2022-12-18T14:21:01.701Z,84.04
2022-12-18T14:23:43.212Z,83.94
2022-12-18T14:26:28.569Z,83.69
2022-12-18T14:29:16.424Z,84.23
2022-12-18T14:31:44.327Z,84.73
2022-12-18T14:34:18.361Z,83.60
2022-12-18T14:36:54.220Z,84.41
2022-12-18T14:39:21.194Z,84.82
2022-12-18T14:41:49.993Z,84.68
2022-12-18T14:44:16.992Z,84.73
2022-12-18T14:46:46.185Z,84.29
2022-12-18T14:49:19.368Z,84.31
2022-12-18T14:51:52.795Z,84.26
2022-12-18T14:54:22.171Z,84.97
2022-12-18T14:57:00.757Z,84.23
2022-12-18T14:59:29.685Z,84.56
2022-12-18T15:02:14.839Z,85.00
2022-12-18T15:04:45.174Z,84.08
2022-12-18T15:07:17.245Z,83.91
2022-12-18T15:10:02.022Z,84.54
2022-12-18T15:12:44.852Z,85.13
2022-12-18T15:15:37.636Z,85.26
2022-12-18T15:18:12.673Z,84.49
2022-12-18T15:20:46.306Z,84.70
2022-12-18T15:23:50.220Z,84.97
2022-12-18T15:26:20.209Z,84.62
2022-12-18T15:28:51.854Z,85.09
2022-12-18T15:31:32.876Z,85.16
2022-12-18T15:34:14.122Z,84.37
2022-12-18T15:36:41.723Z,85.04
2022-12-18T15:39:12.972Z,85.15
2022-12-18T15:41:41.043Z,85.53
2022-12-18T15:44:26.251Z,85.25
2022-12-18T15:46:53.932Z,85.17
2022-12-18T15:49:21.833Z,84.99
2022-12-18T15:51:56.278Z,85.50
2022-12-18T15:54:24.292Z,85.53
2022-12-18T15:56:51.624Z,85.64
2022-12-18T15:59:21.010Z,86.15
2022-12-18T16:01:51.213Z,85.34
2022-12-18T16:04:21.570Z,85.82
2022-12-18T16:09:39.543Z,85.59
2022-12-18T16:12:25.311Z,86.06
2022-12-18T16:14:53.007Z,85.72
2022-12-18T16:17:20.541Z,86.04
2022-12-18T16:19:56.738Z,85.83
2022-12-18T16:22:27.582Z,86.21
2022-12-18T16:24:56.513Z,86.73
2022-12-18T16:27:25.554Z,86.00
2022-12-18T16:29:53.470Z,85.85
2022-12-18T16:32:26.412Z,85.96
2022-12-18T16:34:54.601Z,85.90
2022-12-18T16:37:23.933Z,86.09
2022-12-18T16:39:51.620Z,86.44
2022-12-18T16:42:21.511Z,86.64
2022-12-18T16:44:50.700Z,86.20
2022-12-18T16:47:18.804Z,86.47
2022-12-18T16:49:47.101Z,86.91
2022-12-18T16:52:17.795Z,87.00
2022-12-18T16:54:45.884Z,86.93
2022-12-18T16:57:15.823Z,86.70
2022-12-18T16:59:45.329Z,87.15
2022-12-18T17:02:27.305Z,86.68
2022-12-18T17:04:59.420Z,86.79
2022-12-18T17:07:28.679Z,87.09
2022-12-18T17:09:56.793Z,86.75
2022-12-18T17:12:28.201Z,86.93
2022-12-18T17:14:56.293Z,86.74
2022-12-18T17:17:24.339Z,86.92
2022-12-18T17:19:53.115Z,86.72
2022-12-18T17:22:22.369Z,86.59
2022-12-18T17:24:51.727Z,87.36
2022-12-18T17:27:19.632Z,87.45
2022-12-18T17:29:48.781Z,87.28
2022-12-18T17:32:18.789Z,87.05
2022-12-18T17:34:47.419Z,87.70
2022-12-18T17:37:15.919Z,87.24
2022-12-18T17:39:44.273Z,87.23
2022-12-18T17:42:15.446Z,87.52
2022-12-18T17:44:45.072Z,87.71
2022-12-18T17:47:14.842Z,87.79
2022-12-18T17:49:43.783Z,87.79
2022-12-18T17:52:11.952Z,88.07
2022-12-18T17:54:40.061Z,88.33
2022-12-18T17:57:08.276Z,88.63
2022-12-18T17:59:36.005Z,88.37
2022-12-18T18:02:03.913Z,88.75
2022-12-18T18:04:32.855Z,88.71
2022-12-18T18:07:01.597Z,88.51
2022-12-18T18:09:29.867Z,88.70
2022-12-18T18:11:57.386Z,88.74
2022-12-18T18:14:25.857Z,88.63
2022-12-18T18:16:58.212Z,88.60
2022-12-18T18:19:34.044Z,88.61
2022-12-18T18:22:01.324Z,88.75
2022-12-18T18:24:29.042Z,88.57
2022-12-18T18:26:58.473Z,88.91
2022-12-18T18:29:27.846Z,88.70
2022-12-18T18:31:58.206Z,88.76
2022-12-18T18:34:29.135Z,89.30
2022-12-18T18:36:56.808Z,88.75
2022-12-18T18:39:25.858Z,88.57
2022-12-18T18:41:53.825Z,89.09
2022-12-18T18:44:25.578Z,88.67
2022-12-18T18:46:58.231Z,88.83
2022-12-18T18:49:28.191Z,89.32
2022-12-18T18:51:59.075Z,89.13
2022-12-18T18:54:29.121Z,88.81
2022-12-18T18:57:19.916Z,88.28
2022-12-18T18:59:47.204Z,89.09
2022-12-18T19:02:16.913Z,88.35
2022-12-18T19:04:47.030Z,88.55
2022-12-18T19:07:29.641Z,87.94
2022-12-18T19:10:04.272Z,87.97
2022-12-18T19:12:33.964Z,88.24
2022-12-18T19:15:01.247Z,88.24
2022-12-18T19:17:30.593Z,88.02
2022-12-18T19:19:59.698Z,87.73
2022-12-18T19:22:27.263Z,87.97
2022-12-18T19:24:55.871Z,87.67
2022-12-18T19:27:23.785Z,87.52
2022-12-18T19:29:51.215Z,87.63
2022-12-18T19:32:19.009Z,87.70
2022-12-18T19:34:48.041Z,87.10
2022-12-18T19:37:16.151Z,87.63
2022-12-18T19:39:43.962Z,88.16
2022-12-18T19:42:13.088Z,88.19
2022-12-18T19:44:42.572Z,87.82
2022-12-18T19:47:10.625Z,88.10
2022-12-18T19:49:38.501Z,88.12
2022-12-18T19:52:06.093Z,87.59
2022-12-18T19:54:33.734Z,88.17
2022-12-18T19:57:01.310Z,88.67
2022-12-18T19:59:29.604Z,88.29
2022-12-18T20:01:57.748Z,88.18
2022-12-18T20:04:27.078Z,88.43
2022-12-18T20:06:58.570Z,88.17
2022-12-18T20:09:26.964Z,88.03
2022-12-18T20:11:56.923Z,88.81
2022-12-18T20:14:25.006Z,88.64
2022-12-18T20:16:56.711Z,88.76
2022-12-18T20:19:26.832Z,88.87
2022-12-18T20:21:54.731Z,88.81
2022-12-18T20:24:22.423Z,88.50
2022-12-18T20:26:50.068Z,88.55
2022-12-18T20:29:18.101Z,88.61
2022-12-18T20:31:46.575Z,88.53
2022-12-18T20:34:15.582Z,88.90
2022-12-18T20:36:43.580Z,88.57
2022-12-18T20:39:13.367Z,88.98
2022-12-18T20:41:41.488Z,88.54
2022-12-18T20:44:22.699Z,88.56
2022-12-18T20:46:57.127Z,88.63
2022-12-18T20:49:26.087Z,88.61
2022-12-18T20:51:55.101Z,88.26
2022-12-18T20:54:24.371Z,88.56
2022-12-18T20:56:52.224Z,88.73
2022-12-18T20:59:19.247Z,88.94
2022-12-18T21:01:48.898Z,88.26
2022-12-18T21:04:18.982Z,88.21
2022-12-18T21:06:52.882Z,88.40
2022-12-18T21:09:25.009Z,88.47
2022-12-18T21:11:52.015Z,88.75
2022-12-18T21:14:22.937Z,88.53
2022-12-18T21:16:50.643Z,88.16
2022-12-18T21:19:20.555Z,88.11
2022-12-18T21:21:47.979Z,88.23
2022-12-18T21:24:15.859Z,88.21
2022-12-18T21:26:45.791Z,87.51
2022-12-18T21:29:19.079Z,87.69
2022-12-18T21:31:47.040Z,87.55
2022-12-18T21:34:25.761Z,88.35
2022-12-18T21:36:53.737Z,87.67
2022-12-18T21:39:21.240Z,87.50
2022-12-18T21:41:50.161Z,87.93
2022-12-18T21:44:19.538Z,87.38
2022-12-18T21:46:53.126Z,88.28
2022-12-18T21:49:24.344Z,87.92
2022-12-18T21:51:56.033Z,87.87
2022-12-18T21:54:23.809Z,88.15
2022-12-18T21:56:56.261Z,87.67
2022-12-18T21:59:29.640Z,87.74
2022-12-18T22:02:00.502Z,87.52
2022-12-18T22:04:28.539Z,88.16
2022-12-18T22:06:56.733Z,87.82
2022-12-18T22:09:26.155Z,87.96
2022-12-18T22:11:53.572Z,87.95
2022-12-18T22:14:22.106Z,88.02
2022-12-18T22:16:49.977Z,87.84
2022-12-18T22:19:18.565Z,88.32
2022-12-18T22:21:49.786Z,88.12
2022-12-18T22:24:22.345Z,88.30
2022-12-18T22:26:50.354Z,88.56
2022-12-18T22:29:20.125Z,88.41
2022-12-18T22:31:47.286Z,88.46
2022-12-18T22:34:14.191Z,88.41
2022-12-18T22:36:46.589Z,88.80
2022-12-18T22:39:19.608Z,88.50
2022-12-18T22:41:46.473Z,88.41
2022-12-18T22:44:15.726Z,88.66
2022-12-18T22:46:50.803Z,88.34
2022-12-18T22:49:31.350Z,89.00
2022-12-18T22:51:59.177Z,88.50
2022-12-18T22:54:25.930Z,88.78
2022-12-18T22:56:52.633Z,88.36
2022-12-18T22:59:23.449Z,88.73
2022-12-18T23:01:54.183Z,89.03
2022-12-18T23:04:31.215Z,89.49
2022-12-18T23:07:05.104Z,89.19
2022-12-18T23:09:32.807Z,89.24
2022-12-18T23:11:59.799Z,88.90
2022-12-18T23:14:26.882Z,89.31
2022-12-18T23:16:53.634Z,89.03
2022-12-18T23:19:21.640Z,89.14
2022-12-18T23:21:51.376Z,89.09
2022-12-18T23:24:18.278Z,89.53
2022-12-18T23:26:45.164Z,89.70
2022-12-18T23:29:12.024Z,89.54
2022-12-18T23:31:39.795Z,89.42
2022-12-18T23:34:07.364Z,89.38
2022-12-18T23:36:41.835Z,89.05
2022-12-18T23:39:22.373Z,89.10
2022-12-18T23:41:59.646Z,89.17
2022-12-18T23:44:27.153Z,89.18
2022-12-18T23:46:54.025Z,88.88
2022-12-18T23:49:20.853Z,89.14
2022-12-18T23:51:47.817Z,89.03
2022-12-18T23:54:14.608Z,88.70
2022-12-18T23:56:41.482Z,89.19
2022-12-18T23:59:08.398Z,89.11
